sensor_id;sensor_type;location;lat;lon;timestamp;pressure;altitude;pressure_sealevel;temperature;humidity
19600;BME280;9947;57.722;12.012;2023-05-12T00:02:04;101842.88;;;10.70;100.00
19600;BME280;9947;57.722;12.012;2023-05-12T00:04:33;101833.44;;;10.61;100.00
19600;BME280;9947;57.722;12.012;2023-05-12T00:07:01;101842.03;;;10.54;100.00
19600;BME280;9947;57.722;12.012;2023-05-12T00:09:30;101839.13;;;10.57;100.00
19600;BME280;9947;57.722;12.012;2023-05-12T00:11:58;101840.28;;;10.53;100.00
19600;BME280;9947;57.722;12.012;2023-05-12T00:14:26;101835.47;;;10.58;100.00
19600;BME280;9947;57.722;12.012;2023-05-12T00:16:54;101838.78;;;10.63;100.00
19600;BME280;9947;57.722;12.012;2023-05-12T00:19:27;101839.50;;;10.50;100.00
19600;BME280;9947;57.722;12.012;2023-05-12T00:21:54;101847.22;;;10.42;100.00
19600;BME280;9947;57.722;12.012;2023-05-12T00:24:21;101848.22;;;10.40;100.00
19600;BME280;9947;57.722;12.012;2023-05-12T00:26:48;101854.00;;;10.34;100.00
19600;BME280;9947;57.722;12.012;2023-05-12T00:29:17;101852.06;;;10.36;100.00
19600;BME280;9947;57.722;12.012;2023-05-12T00:31:45;101848.94;;;10.43;100.00
19600;BME280;9947;57.722;12.012;2023-05-12T00:34:16;101853.03;;;10.50;100.00
19600;BME280;9947;57.722;12.012;2023-05-12T00:36:42;101851.00;;;10.54;100.00
19600;BME280;9947;57.722;12.012;2023-05-12T00:39:10;101850.50;;;10.47;100.00
19600;BME280;9947;57.722;12.012;2023-05-12T00:41:37;101851.88;;;10.55;100.00
19600;BME280;9947;57.722;12.012;2023-05-12T00:44:04;101853.13;;;10.49;100.00
19600;BME280;9947;57.722;12.012;2023-05-12T00:46:31;101850.59;;;10.46;100.00
19600;BME280;9947;57.722;12.012;2023-05-12T00:48:58;101846.25;;;10.43;100.00
19600;BME280;9947;57.722;12.012;2023-05-12T00:51:28;101849.47;;;10.34;100.00
19600;BME280;9947;57.722;12.012;2023-05-12T00:53:56;101857.06;;;10.28;100.00
19600;BME280;9947;57.722;12.012;2023-05-12T00:56:24;101849.78;;;10.12;100.00
19600;BME280;9947;57.722;12.012;2023-05-12T00:58:51;101853.03;;;10.03;100.00
19600;BME280;9947;57.722;12.012;2023-05-12T01:01:19;101857.66;;;10.01;100.00
19600;BME280;9947;57.722;12.012;2023-05-12T01:03:45;101864.63;;;9.89;100.00
19600;BME280;9947;57.722;12.012;2023-05-12T01:06:18;101869.28;;;9.86;100.00
19600;BME280;9947;57.722;12.012;2023-05-12T01:08:49;101867.56;;;9.85;100.00
19600;BME280;9947;57.722;12.012;2023-05-12T01:11:16;101866.41;;;9.73;100.00
19600;BME280;9947;57.722;12.012;2023-05-12T01:13:43;101872.59;;;9.75;100.00
19600;BME280;9947;57.722;12.012;2023-05-12T01:16:12;101861.88;;;9.74;100.00
19600;BME280;9947;57.722;12.012;2023-05-12T01:18:42;101868.59;;;9.67;100.00
19600;BME280;9947;57.722;12.012;2023-05-12T01:21:14;101864.75;;;9.71;100.00
19600;BME280;9947;57.722;12.012;2023-05-12T01:23:53;101869.13;;;9.73;100.00
19600;BME280;9947;57.722;12.012;2023-05-12T01:26:24;101867.13;;;9.77;100.00
19600;BME280;9947;57.722;12.012;2023-05-12T01:28:52;101872.16;;;9.83;100.00
19600;BME280;9947;57.722;12.012;2023-05-12T01:31:20;101870.00;;;9.74;100.00
19600;BME280;9947;57.722;12.012;2023-05-12T01:33:47;101868.59;;;9.82;100.00
19600;BME280;9947;57.722;12.012;2023-05-12T01:36:15;101877.22;;;9.73;100.00
19600;BME280;9947;57.722;12.012;2023-05-12T01:38:42;101875.22;;;9.77;100.00
19600;BME280;9947;57.722;12.012;2023-05-12T01:41:13;101877.31;;;9.72;100.00
19600;BME280;9947;57.722;12.012;2023-05-12T01:43:42;101883.34;;;9.59;100.00
19600;BME280;9947;57.722;12.012;2023-05-12T01:46:09;101883.88;;;9.50;100.00
19600;BME280;9947;57.722;12.012;2023-05-12T01:48:36;101882.38;;;9.45;100.00
19600;BME280;9947;57.722;12.012;2023-05-12T01:51:07;101890.06;;;9.35;100.00
19600;BME280;9947;57.722;12.012;2023-05-12T01:53:34;101887.38;;;9.35;100.00
19600;BME280;9947;57.722;12.012;2023-05-12T01:56:01;101890.66;;;9.42;100.00
19600;BME280;9947;57.722;12.012;2023-05-12T01:58:28;101883.34;;;9.26;100.00
19600;BME280;9947;57.722;12.012;2023-05-12T02:00:57;101882.91;;;9.18;100.00
19600;BME280;9947;57.722;12.012;2023-05-12T02:03:24;101891.06;;;9.17;100.00
19600;BME280;9947;57.722;12.012;2023-05-12T02:05:51;101892.97;;;9.15;100.00
19600;BME280;9947;57.722;12.012;2023-05-12T02:08:19;101893.06;;;9.13;100.00
19600;BME280;9947;57.722;12.012;2023-05-12T02:10:46;101898.50;;;9.29;100.00
19600;BME280;9947;57.722;12.012;2023-05-12T02:13:13;101897.63;;;9.28;100.00
19600;BME280;9947;57.722;12.012;2023-05-12T02:15:41;101901.53;;;9.23;100.00
19600;BME280;9947;57.722;12.012;2023-05-12T02:18:09;101893.75;;;9.17;100.00
19600;BME280;9947;57.722;12.012;2023-05-12T02:20:36;101895.84;;;9.12;100.00
19600;BME280;9947;57.722;12.012;2023-05-12T02:23:02;101899.69;;;9.06;100.00
19600;BME280;9947;57.722;12.012;2023-05-12T02:25:30;101903.59;;;9.01;100.00
19600;BME280;9947;57.722;12.012;2023-05-12T02:27:58;101902.09;;;8.95;100.00
19600;BME280;9947;57.722;12.012;2023-05-12T02:30:26;101901.53;;;8.88;100.00
19600;BME280;9947;57.722;12.012;2023-05-12T02:32:53;101905.13;;;8.89;100.00
19600;BME280;9947;57.722;12.012;2023-05-12T02:35:22;101908.09;;;8.83;100.00
19600;BME280;9947;57.722;12.012;2023-05-12T02:37:49;101904.22;;;8.71;100.00
19600;BME280;9947;57.722;12.012;2023-05-12T02:40:18;101909.91;;;8.65;100.00
19600;BME280;9947;57.722;12.012;2023-05-12T02:42:45;101903.75;;;8.63;100.00
19600;BME280;9947;57.722;12.012;2023-05-12T02:45:13;101903.75;;;8.63;100.00
19600;BME280;9947;57.722;12.012;2023-05-12T02:47:41;101912.78;;;8.62;100.00
19600;BME280;9947;57.722;12.012;2023-05-12T02:50:08;101913.56;;;8.64;100.00
19600;BME280;9947;57.722;12.012;2023-05-12T02:52:37;101913.72;;;8.61;100.00
19600;BME280;9947;57.722;12.012;2023-05-12T02:55:05;101910.22;;;8.59;100.00
19600;BME280;9947;57.722;12.012;2023-05-12T02:57:32;101903.16;;;8.56;100.00
19600;BME280;9947;57.722;12.012;2023-05-12T02:59:59;101903.34;;;8.71;100.00
19600;BME280;9947;57.722;12.012;2023-05-12T03:02:31;101908.50;;;8.75;100.00
19600;BME280;9947;57.722;12.012;2023-05-12T03:04:58;101912.31;;;8.71;100.00
19600;BME280;9947;57.722;12.012;2023-05-12T03:07:26;101907.94;;;8.69;100.00
19600;BME280;9947;57.722;12.012;2023-05-12T03:10:00;101905.16;;;8.70;100.00
19600;BME280;9947;57.722;12.012;2023-05-12T03:12:36;101906.19;;;8.68;100.00
19600;BME280;9947;57.722;12.012;2023-05-12T03:15:05;101904.53;;;8.65;100.00
19600;BME280;9947;57.722;12.012;2023-05-12T03:17:36;101904.75;;;8.60;100.00
19600;BME280;9947;57.722;12.012;2023-05-12T03:20:04;101903.81;;;8.61;100.00
19600;BME280;9947;57.722;12.012;2023-05-12T03:22:33;101910.28;;;8.57;100.00
19600;BME280;9947;57.722;12.012;2023-05-12T03:25:03;101904.97;;;8.56;100.00
19600;BME280;9947;57.722;12.012;2023-05-12T03:27:31;101909.41;;;8.57;100.00
19600;BME280;9947;57.722;12.012;2023-05-12T03:29:59;101911.50;;;8.69;100.00
19600;BME280;9947;57.722;12.012;2023-05-12T03:32:29;101904.78;;;8.78;100.00
19600;BME280;9947;57.722;12.012;2023-05-12T03:34:57;101911.75;;;8.82;100.00
19600;BME280;9947;57.722;12.012;2023-05-12T03:37:27;101907.81;;;8.89;100.00
19600;BME280;9947;57.722;12.012;2023-05-12T03:40:03;101917.16;;;8.99;100.00
19600;BME280;9947;57.722;12.012;2023-05-12T03:42:32;101913.84;;;8.94;100.00
19600;BME280;9947;57.722;12.012;2023-05-12T03:44:59;101911.38;;;8.89;100.00
19600;BME280;9947;57.722;12.012;2023-05-12T03:47:27;101916.63;;;8.92;100.00
19600;BME280;9947;57.722;12.012;2023-05-12T03:49:55;101915.47;;;8.79;100.00
19600;BME280;9947;57.722;12.012;2023-05-12T03:52:25;101914.38;;;9.01;100.00
19600;BME280;9947;57.722;12.012;2023-05-12T03:54:55;101904.47;;;9.18;100.00
19600;BME280;9947;57.722;12.012;2023-05-12T03:57:26;101915.38;;;9.50;100.00
19600;BME280;9947;57.722;12.012;2023-05-12T03:59:54;101914.38;;;10.01;100.00
19600;BME280;9947;57.722;12.012;2023-05-12T04:02:25;101924.91;;;10.23;100.00
19600;BME280;9947;57.722;12.012;2023-05-12T04:04:55;101913.44;;;10.18;100.00
19600;BME280;9947;57.722;12.012;2023-05-12T04:07:25;101917.09;;;10.17;99.92
19600;BME280;9947;57.722;12.012;2023-05-12T04:09:52;101923.66;;;10.29;98.96
19600;BME280;9947;57.722;12.012;2023-05-12T04:12:21;101914.56;;;10.77;96.70
19600;BME280;9947;57.722;12.012;2023-05-12T04:14:51;101921.50;;;10.97;96.70
19600;BME280;9947;57.722;12.012;2023-05-12T04:17:19;101925.78;;;11.15;94.91
19600;BME280;9947;57.722;12.012;2023-05-12T04:19:47;101920.81;;;11.23;95.27
19600;BME280;9947;57.722;12.012;2023-05-12T04:22:17;101918.34;;;11.19;92.63
19600;BME280;9947;57.722;12.012;2023-05-12T04:24:47;101925.59;;;11.48;90.81
19600;BME280;9947;57.722;12.012;2023-05-12T04:27:14;101922.81;;;12.21;85.12
19600;BME280;9947;57.722;12.012;2023-05-12T04:29:46;101928.00;;;12.38;80.12
19600;BME280;9947;57.722;12.012;2023-05-12T04:32:16;101915.09;;;13.22;75.83
19600;BME280;9947;57.722;12.012;2023-05-12T04:34:44;101923.53;;;12.78;77.84
19600;BME280;9947;57.722;12.012;2023-05-12T04:37:13;101925.31;;;13.19;73.67
19600;BME280;9947;57.722;12.012;2023-05-12T04:39:43;101930.31;;;12.98;75.51
19600;BME280;9947;57.722;12.012;2023-05-12T04:42:11;101925.34;;;13.70;71.38
19600;BME280;9947;57.722;12.012;2023-05-12T04:44:40;101928.69;;;12.95;75.00
19600;BME280;9947;57.722;12.012;2023-05-12T04:47:15;101931.16;;;13.25;73.97
19600;BME280;9947;57.722;12.012;2023-05-12T04:49:43;101924.56;;;13.30;74.48
19600;BME280;9947;57.722;12.012;2023-05-12T04:52:14;101931.59;;;14.21;71.73
19600;BME280;9947;57.722;12.012;2023-05-12T04:54:43;101929.59;;;13.86;70.66
19600;BME280;9947;57.722;12.012;2023-05-12T04:57:10;101930.47;;;13.62;73.81
19600;BME280;9947;57.722;12.012;2023-05-12T04:59:39;101929.38;;;13.89;70.34
19600;BME280;9947;57.722;12.012;2023-05-12T05:02:07;101925.56;;;14.54;68.06
19600;BME280;9947;57.722;12.012;2023-05-12T05:04:36;101928.00;;;14.46;64.33
19600;BME280;9947;57.722;12.012;2023-05-12T05:07:05;101929.50;;;14.98;61.75
19600;BME280;9947;57.722;12.012;2023-05-12T05:09:34;101929.50;;;15.68;61.46
19600;BME280;9947;57.722;12.012;2023-05-12T05:12:06;101932.84;;;15.01;60.37
19600;BME280;9947;57.722;12.012;2023-05-12T05:14:34;101941.69;;;15.51;57.12
19600;BME280;9947;57.722;12.012;2023-05-12T05:17:01;101932.53;;;15.52;55.75
19600;BME280;9947;57.722;12.012;2023-05-12T05:19:31;101934.34;;;16.09;55.52
19600;BME280;9947;57.722;12.012;2023-05-12T05:22:04;101930.44;;;16.79;52.31
19600;BME280;9947;57.722;12.012;2023-05-12T05:24:32;101934.59;;;17.26;50.18
19600;BME280;9947;57.722;12.012;2023-05-12T05:27:00;101937.69;;;17.01;50.81
19600;BME280;9947;57.722;12.012;2023-05-12T05:29:27;101944.34;;;18.42;48.09
19600;BME280;9947;57.722;12.012;2023-05-12T05:31:57;101949.09;;;18.40;46.66
19600;BME280;9947;57.722;12.012;2023-05-12T05:34:25;101943.94;;;18.07;46.65
19600;BME280;9947;57.722;12.012;2023-05-12T05:36:58;101941.72;;;16.85;49.57
19600;BME280;9947;57.722;12.012;2023-05-12T05:39:29;101942.44;;;16.87;49.70
19600;BME280;9947;57.722;12.012;2023-05-12T05:41:58;101951.78;;;16.85;49.74
19600;BME280;9947;57.722;12.012;2023-05-12T05:44:27;101939.94;;;17.27;49.31
19600;BME280;9947;57.722;12.012;2023-05-12T05:46:59;101947.63;;;18.27;49.05
19600;BME280;9947;57.722;12.012;2023-05-12T05:49:30;101945.03;;;18.25;47.04
19600;BME280;9947;57.722;12.012;2023-05-12T05:51:57;101945.38;;;17.80;47.24
19600;BME280;9947;57.722;12.012;2023-05-12T05:54:24;101946.63;;;17.55;46.66
19600;BME280;9947;57.722;12.012;2023-05-12T05:56:55;101960.22;;;18.08;48.52
19600;BME280;9947;57.722;12.012;2023-05-12T05:59:25;101961.22;;;18.88;44.69
19600;BME280;9947;57.722;12.012;2023-05-12T06:01:58;101959.09;;;19.30;43.40
19600;BME280;9947;57.722;12.012;2023-05-12T06:04:29;101959.00;;;18.32;44.35
19600;BME280;9947;57.722;12.012;2023-05-12T06:07:02;101966.97;;;18.94;43.38
19600;BME280;9947;57.722;12.012;2023-05-12T06:09:32;101955.19;;;19.52;41.38
19600;BME280;9947;57.722;12.012;2023-05-12T06:12:06;101966.59;;;19.28;41.61
19600;BME280;9947;57.722;12.012;2023-05-12T06:14:33;101957.16;;;19.88;40.84
19600;BME280;9947;57.722;12.012;2023-05-12T06:17:01;101960.59;;;19.90;40.83
19600;BME280;9947;57.722;12.012;2023-05-12T06:19:30;101968.91;;;18.54;42.24
19600;BME280;9947;57.722;12.012;2023-05-12T06:22:00;101965.88;;;19.35;41.41
19600;BME280;9947;57.722;12.012;2023-05-12T06:24:29;101966.00;;;19.24;40.52
19600;BME280;9947;57.722;12.012;2023-05-12T06:26:59;101963.97;;;19.46;40.71
19600;BME280;9947;57.722;12.012;2023-05-12T06:29:27;101961.38;;;19.73;40.92
19600;BME280;9947;57.722;12.012;2023-05-12T06:31:55;101961.81;;;19.78;38.93
19600;BME280;9947;57.722;12.012;2023-05-12T06:34:24;101970.38;;;18.67;40.66
19600;BME280;9947;57.722;12.012;2023-05-12T06:36:53;101967.38;;;18.70;43.58
19600;BME280;9947;57.722;12.012;2023-05-12T06:39:21;101967.03;;;19.52;41.99
19600;BME280;9947;57.722;12.012;2023-05-12T06:41:50;101967.16;;;19.31;40.59
19600;BME280;9947;57.722;12.012;2023-05-12T06:44:18;101966.75;;;19.26;40.90
19600;BME280;9947;57.722;12.012;2023-05-12T06:46:52;101965.97;;;18.76;41.15
19600;BME280;9947;57.722;12.012;2023-05-12T06:49:20;101958.84;;;18.64;41.19
19600;BME280;9947;57.722;12.012;2023-05-12T06:51:50;101963.13;;;19.35;39.70
19600;BME280;9947;57.722;12.012;2023-05-12T06:54:19;101968.03;;;18.53;40.69
19600;BME280;9947;57.722;12.012;2023-05-12T06:56:49;101961.47;;;18.35;40.01
19600;BME280;9947;57.722;12.012;2023-05-12T06:59:20;101964.59;;;18.61;40.74
19600;BME280;9947;57.722;12.012;2023-05-12T07:01:50;101967.25;;;17.80;41.27
19600;BME280;9947;57.722;12.012;2023-05-12T07:04:17;101973.28;;;17.42;42.69
19600;BME280;9947;57.722;12.012;2023-05-12T07:06:44;101968.66;;;17.22;44.08
19600;BME280;9947;57.722;12.012;2023-05-12T07:09:11;101974.88;;;17.24;43.09
19600;BME280;9947;57.722;12.012;2023-05-12T07:11:47;101973.88;;;17.67;42.30
19600;BME280;9947;57.722;12.012;2023-05-12T07:14:16;101980.34;;;17.24;42.95
19600;BME280;9947;57.722;12.012;2023-05-12T07:16:46;101974.22;;;17.52;42.58
19600;BME280;9947;57.722;12.012;2023-05-12T07:19:19;101978.19;;;18.01;42.59
19600;BME280;9947;57.722;12.012;2023-05-12T07:22:14;101983.38;;;18.04;42.31
19600;BME280;9947;57.722;12.012;2023-05-12T07:24:49;101978.63;;;18.06;42.15
19600;BME280;9947;57.722;12.012;2023-05-12T07:27:20;101982.00;;;18.19;41.38
19600;BME280;9947;57.722;12.012;2023-05-12T07:30:03;101978.06;;;18.43;41.21
19600;BME280;9947;57.722;12.012;2023-05-12T07:33:13;101979.59;;;18.26;40.35
19600;BME280;9947;57.722;12.012;2023-05-12T07:41:51;101983.00;;;18.49;39.48
19600;BME280;9947;57.722;12.012;2023-05-12T07:44:24;101974.03;;;18.77;38.22
19600;BME280;9947;57.722;12.012;2023-05-12T07:47:02;101985.88;;;18.88;39.90
19600;BME280;9947;57.722;12.012;2023-05-12T07:49:41;101980.72;;;19.23;41.23
19600;BME280;9947;57.722;12.012;2023-05-12T07:58:49;101985.22;;;18.65;37.46
19600;BME280;9947;57.722;12.012;2023-05-12T08:01:33;101981.63;;;18.34;38.38
19600;BME280;9947;57.722;12.012;2023-05-12T08:04:22;101985.00;;;18.77;37.63
19600;BME280;9947;57.722;12.012;2023-05-12T08:06:57;101981.41;;;18.87;37.87
19600;BME280;9947;57.722;12.012;2023-05-12T08:09:52;101982.19;;;19.27;39.68
19600;BME280;9947;57.722;12.012;2023-05-12T08:12:51;101975.66;;;19.19;36.93
19600;BME280;9947;57.722;12.012;2023-05-12T08:15:27;101979.25;;;19.48;38.89
19600;BME280;9947;57.722;12.012;2023-05-12T08:17:57;101973.53;;;19.32;35.92
19600;BME280;9947;57.722;12.012;2023-05-12T08:20:28;101968.63;;;19.55;35.24
19600;BME280;9947;57.722;12.012;2023-05-12T08:23:04;101972.34;;;19.73;35.65
19600;BME280;9947;57.722;12.012;2023-05-12T08:25:36;101973.72;;;19.96;35.64
19600;BME280;9947;57.722;12.012;2023-05-12T08:28:08;101975.22;;;19.71;34.02
19600;BME280;9947;57.722;12.012;2023-05-12T08:31:07;101974.84;;;19.57;33.93
19600;BME280;9947;57.722;12.012;2023-05-12T08:33:38;101969.16;;;19.78;34.30
19600;BME280;9947;57.722;12.012;2023-05-12T08:36:10;101973.00;;;20.04;34.02
19600;BME280;9947;57.722;12.012;2023-05-12T08:38:39;101974.06;;;19.74;33.96
19600;BME280;9947;57.722;12.012;2023-05-12T08:41:16;101965.41;;;19.79;33.96
19600;BME280;9947;57.722;12.012;2023-05-12T08:43:58;101973.56;;;20.08;35.68
19600;BME280;9947;57.722;12.012;2023-05-12T08:46:34;101964.25;;;19.81;34.18
19600;BME280;9947;57.722;12.012;2023-05-12T08:49:19;101962.09;;;20.22;32.12
19600;BME280;9947;57.722;12.012;2023-05-12T08:52:23;101959.00;;;19.97;32.81
19600;BME280;9947;57.722;12.012;2023-05-12T08:55:10;101960.19;;;19.85;31.66
19600;BME280;9947;57.722;12.012;2023-05-12T08:57:47;101966.13;;;19.81;32.21
19600;BME280;9947;57.722;12.012;2023-05-12T09:00:22;101964.25;;;19.71;31.90
19600;BME280;9947;57.722;12.012;2023-05-12T09:03:17;101965.50;;;19.96;31.47
19600;BME280;9947;57.722;12.012;2023-05-12T09:06:05;101963.09;;;20.21;31.69
19600;BME280;9947;57.722;12.012;2023-05-12T09:08:53;101969.28;;;20.32;32.06
19600;BME280;9947;57.722;12.012;2023-05-12T09:11:29;101965.34;;;20.08;28.23
19600;BME280;9947;57.722;12.012;2023-05-12T09:14:14;101965.69;;;19.85;29.12
19600;BME280;9947;57.722;12.012;2023-05-12T09:16:55;101974.28;;;20.10;29.39
19600;BME280;9947;57.722;12.012;2023-05-12T09:19:32;101964.38;;;19.89;29.34
19600;BME280;9947;57.722;12.012;2023-05-12T09:22:16;101967.81;;;20.38;30.31
19600;BME280;9947;57.722;12.012;2023-05-12T09:24:50;101963.41;;;20.55;29.71
19600;BME280;9947;57.722;12.012;2023-05-12T09:27:25;101970.50;;;20.57;29.55
19600;BME280;9947;57.722;12.012;2023-05-12T09:30:14;101975.97;;;20.20;29.32
19600;BME280;9947;57.722;12.012;2023-05-12T09:32:43;101978.00;;;20.55;29.09
19600;BME280;9947;57.722;12.012;2023-05-12T09:35:24;101976.31;;;20.72;29.14
19600;BME280;9947;57.722;12.012;2023-05-12T09:38:12;101972.78;;;20.62;30.79
19600;BME280;9947;57.722;12.012;2023-05-12T09:40:45;101972.16;;;20.68;29.42
19600;BME280;9947;57.722;12.012;2023-05-12T09:46:25;101956.31;;;20.80;29.68
19600;BME280;9947;57.722;12.012;2023-05-12T09:49:01;101959.97;;;20.98;31.28
19600;BME280;9947;57.722;12.012;2023-05-12T09:51:52;101961.97;;;20.78;29.07
19600;BME280;9947;57.722;12.012;2023-05-12T09:54:35;101961.28;;;20.12;29.74
19600;BME280;9947;57.722;12.012;2023-05-12T09:57:15;101956.41;;;20.33;30.21
19600;BME280;9947;57.722;12.012;2023-05-12T09:59:58;101962.34;;;20.28;29.65
19600;BME280;9947;57.722;12.012;2023-05-12T10:02:50;101959.09;;;20.52;30.64
19600;BME280;9947;57.722;12.012;2023-05-12T10:05:22;101956.94;;;20.46;29.97
19600;BME280;9947;57.722;12.012;2023-05-12T10:08:00;101959.59;;;20.66;30.38
19600;BME280;9947;57.722;12.012;2023-05-12T10:10:43;101957.34;;;20.51;31.05
19600;BME280;9947;57.722;12.012;2023-05-12T10:13:30;101957.50;;;20.50;30.48
19600;BME280;9947;57.722;12.012;2023-05-12T10:16:16;101960.78;;;20.81;29.90
19600;BME280;9947;57.722;12.012;2023-05-12T10:18:49;101954.31;;;20.82;29.92
19600;BME280;9947;57.722;12.012;2023-05-12T10:21:22;101958.22;;;20.97;29.72
19600;BME280;9947;57.722;12.012;2023-05-12T10:24:02;101954.94;;;20.93;30.36
19600;BME280;9947;57.722;12.012;2023-05-12T10:26:38;101943.63;;;20.97;29.86
19600;BME280;9947;57.722;12.012;2023-05-12T10:29:12;101950.13;;;20.96;29.16
19600;BME280;9947;57.722;12.012;2023-05-12T10:31:44;101943.47;;;21.34;29.55
19600;BME280;9947;57.722;12.012;2023-05-12T10:34:28;101940.28;;;21.38;30.20
19600;BME280;9947;57.722;12.012;2023-05-12T10:37:09;101939.09;;;21.41;29.81
19600;BME280;9947;57.722;12.012;2023-05-12T10:39:53;101940.09;;;21.22;28.73
19600;BME280;9947;57.722;12.012;2023-05-12T10:42:37;101937.97;;;21.16;29.88
19600;BME280;9947;57.722;12.012;2023-05-12T10:45:17;101940.81;;;21.24;29.00
19600;BME280;9947;57.722;12.012;2023-05-12T10:48:14;101932.94;;;20.93;29.33
19600;BME280;9947;57.722;12.012;2023-05-12T10:51:18;101936.47;;;20.86;29.50
19600;BME280;9947;57.722;12.012;2023-05-12T10:53:50;101934.75;;;21.20;30.22
19600;BME280;9947;57.722;12.012;2023-05-12T10:56:26;101926.50;;;21.20;29.82
19600;BME280;9947;57.722;12.012;2023-05-12T10:59:09;101933.13;;;21.28;29.70
19600;BME280;9947;57.722;12.012;2023-05-12T11:01:54;101933.66;;;21.31;28.50
19600;BME280;9947;57.722;12.012;2023-05-12T11:04:39;101934.53;;;21.32;28.30
19600;BME280;9947;57.722;12.012;2023-05-12T11:07:11;101943.63;;;21.50;28.92
19600;BME280;9947;57.722;12.012;2023-05-12T11:09:40;101943.00;;;21.03;29.09
19600;BME280;9947;57.722;12.012;2023-05-12T11:12:14;101936.31;;;21.23;29.42
19600;BME280;9947;57.722;12.012;2023-05-12T11:14:59;101929.63;;;21.08;28.18
19600;BME280;9947;57.722;12.012;2023-05-12T11:17:29;101931.94;;;21.30;28.75
19600;BME280;9947;57.722;12.012;2023-05-12T11:22:46;101930.72;;;21.50;28.71
19600;BME280;9947;57.722;12.012;2023-05-12T11:25:16;101940.03;;;21.32;29.36
19600;BME280;9947;57.722;12.012;2023-05-12T11:27:58;101930.84;;;21.41;28.65
19600;BME280;9947;57.722;12.012;2023-05-12T11:30:47;101932.63;;;21.14;28.96
19600;BME280;9947;57.722;12.012;2023-05-12T11:33:23;101928.84;;;21.33;29.17
19600;BME280;9947;57.722;12.012;2023-05-12T11:36:06;101932.13;;;21.54;29.22
19600;BME280;9947;57.722;12.012;2023-05-12T11:38:53;101937.56;;;21.64;29.81
19600;BME280;9947;57.722;12.012;2023-05-12T11:41:26;101936.50;;;21.39;28.01
19600;BME280;9947;57.722;12.012;2023-05-12T11:44:11;101928.41;;;21.38;28.10
19600;BME280;9947;57.722;12.012;2023-05-12T11:47:11;101931.47;;;21.35;28.14
19600;BME280;9947;57.722;12.012;2023-05-12T11:49:47;101933.88;;;21.55;29.36
19600;BME280;9947;57.722;12.012;2023-05-12T11:52:20;101939.34;;;21.73;30.24
19600;BME280;9947;57.722;12.012;2023-05-12T11:54:50;101935.25;;;21.60;32.16
19600;BME280;9947;57.722;12.012;2023-05-12T11:57:29;101928.94;;;21.41;34.65
19600;BME280;9947;57.722;12.012;2023-05-12T12:00:25;101924.97;;;21.36;33.26
19600;BME280;9947;57.722;12.012;2023-05-12T12:06:00;101934.53;;;21.32;34.05
19600;BME280;9947;57.722;12.012;2023-05-12T12:08:28;101939.78;;;21.43;34.27
19600;BME280;9947;57.722;12.012;2023-05-12T12:10:56;101939.41;;;21.38;34.11
19600;BME280;9947;57.722;12.012;2023-05-12T12:13:31;101944.22;;;21.36;33.72
19600;BME280;9947;57.722;12.012;2023-05-12T12:16:14;101953.06;;;21.30;33.72
19600;BME280;9947;57.722;12.012;2023-05-12T12:18:46;101955.72;;;21.21;35.10
19600;BME280;9947;57.722;12.012;2023-05-12T12:21:18;101957.06;;;21.17;34.83
19600;BME280;9947;57.722;12.012;2023-05-12T12:23:48;101964.41;;;21.27;35.40
19600;BME280;9947;57.722;12.012;2023-05-12T12:26:26;101964.78;;;21.32;34.50
19600;BME280;9947;57.722;12.012;2023-05-12T12:29:00;101968.28;;;21.06;35.09
19600;BME280;9947;57.722;12.012;2023-05-12T12:31:50;101977.88;;;21.20;35.08
19600;BME280;9947;57.722;12.012;2023-05-12T12:34:40;101978.19;;;20.99;36.23
19600;BME280;9947;57.722;12.012;2023-05-12T12:37:17;101970.56;;;20.93;35.37
19600;BME280;9947;57.722;12.012;2023-05-12T12:39:48;101970.72;;;20.91;35.39
19600;BME280;9947;57.722;12.012;2023-05-12T12:42:24;101973.34;;;20.66;35.26
19600;BME280;9947;57.722;12.012;2023-05-12T12:44:56;101976.78;;;20.68;35.79
19600;BME280;9947;57.722;12.012;2023-05-12T12:47:28;101978.53;;;20.69;36.21
19600;BME280;9947;57.722;12.012;2023-05-12T12:49:59;101972.75;;;20.35;36.31
19600;BME280;9947;57.722;12.012;2023-05-12T12:52:37;101977.38;;;20.24;35.78
19600;BME280;9947;57.722;12.012;2023-05-12T12:55:07;101965.91;;;20.01;36.12
19600;BME280;9947;57.722;12.012;2023-05-12T12:57:35;101981.75;;;20.17;36.17
19600;BME280;9947;57.722;12.012;2023-05-12T13:00:03;101974.69;;;20.15;37.49
19600;BME280;9947;57.722;12.012;2023-05-12T13:02:38;101981.00;;;20.25;36.44
19600;BME280;9947;57.722;12.012;2023-05-12T13:05:06;101978.88;;;20.19;36.58
19600;BME280;9947;57.722;12.012;2023-05-12T13:07:45;101976.88;;;20.11;35.64
19600;BME280;9947;57.722;12.012;2023-05-12T13:10:15;101976.03;;;20.01;35.83
19600;BME280;9947;57.722;12.012;2023-05-12T13:12:42;101974.22;;;19.82;35.78
19600;BME280;9947;57.722;12.012;2023-05-12T13:15:12;101984.19;;;19.83;36.68
19600;BME280;9947;57.722;12.012;2023-05-12T13:17:44;101982.00;;;19.77;36.00
19600;BME280;9947;57.722;12.012;2023-05-12T13:20:15;101983.88;;;19.77;35.92
19600;BME280;9947;57.722;12.012;2023-05-12T13:22:44;101992.56;;;19.53;36.73
19600;BME280;9947;57.722;12.012;2023-05-12T13:25:11;101988.53;;;19.66;36.60
19600;BME280;9947;57.722;12.012;2023-05-12T13:27:39;101989.97;;;19.61;36.28
19600;BME280;9947;57.722;12.012;2023-05-12T13:30:06;101979.59;;;19.64;35.92
19600;BME280;9947;57.722;12.012;2023-05-12T13:32:36;101985.34;;;19.71;37.05
19600;BME280;9947;57.722;12.012;2023-05-12T13:35:14;101982.59;;;19.71;36.47
19600;BME280;9947;57.722;12.012;2023-05-12T13:37:41;101976.50;;;19.77;36.84
19600;BME280;9947;57.722;12.012;2023-05-12T13:40:13;101981.34;;;19.56;37.47
19600;BME280;9947;57.722;12.012;2023-05-12T13:42:40;101983.47;;;19.62;36.65